sensor_id;sensor_type;location;lat;lon;timestamp;P1;durP1;ratioP1;P2;durP2;ratioP2
57826;SDS011;43656;57.746;11.780;2024-02-23T00:02:14;23.38;;;15.43;;
57826;SDS011;43656;57.746;11.780;2024-02-23T00:04:40;6.65;;;5.70;;
57826;SDS011;43656;57.746;11.780;2024-02-23T00:07:06;3.35;;;1.50;;
57826;SDS011;43656;57.746;11.780;2024-02-23T00:09:32;1.10;;;1.00;;
57826;SDS011;43656;57.746;11.780;2024-02-23T00:11:57;0.80;;;0.80;;
57826;SDS011;43656;57.746;11.780;2024-02-23T00:14:24;1.38;;;1.05;;
57826;SDS011;43656;57.746;11.780;2024-02-23T00:16:49;0.75;;;0.70;;
57826;SDS011;43656;57.746;11.780;2024-02-23T00:19:15;0.77;;;0.60;;
57826;SDS011;43656;57.746;11.780;2024-02-23T00:21:43;0.70;;;0.70;;
57826;SDS011;43656;57.746;11.780;2024-02-23T00:24:12;1.33;;;0.60;;
57826;SDS011;43656;57.746;11.780;2024-02-23T00:26:38;0.77;;;0.70;;
57826;SDS011;43656;57.746;11.780;2024-02-23T00:29:03;0.70;;;0.60;;
57826;SDS011;43656;57.746;11.780;2024-02-23T00:31:29;0.60;;;0.60;;
57826;SDS011;43656;57.746;11.780;2024-02-23T00:33:54;0.50;;;0.40;;
57826;SDS011;43656;57.746;11.780;2024-02-23T00:36:20;1.95;;;0.45;;
57826;SDS011;43656;57.746;11.780;2024-02-23T00:38:45;0.50;;;0.50;;
57826;SDS011;43656;57.746;11.780;2024-02-23T00:41:10;0.85;;;0.50;;
57826;SDS011;43656;57.746;11.780;2024-02-23T00:43:39;0.63;;;0.35;;
57826;SDS011;43656;57.746;11.780;2024-02-23T00:46:05;0.30;;;0.30;;
57826;SDS011;43656;57.746;11.780;2024-02-23T00:48:31;0.40;;;0.30;;
57826;SDS011;43656;57.746;11.780;2024-02-23T00:50:56;0.40;;;0.30;;
57826;SDS011;43656;57.746;11.780;2024-02-23T00:53:22;1.08;;;0.35;;
57826;SDS011;43656;57.746;11.780;2024-02-23T00:55:47;0.60;;;0.30;;
57826;SDS011;43656;57.746;11.780;2024-02-23T00:58:12;2.20;;;0.30;;
57826;SDS011;43656;57.746;11.780;2024-02-23T01:00:39;0.57;;;0.40;;
57826;SDS011;43656;57.746;11.780;2024-02-23T01:03:04;0.63;;;0.40;;
57826;SDS011;43656;57.746;11.780;2024-02-23T01:05:30;0.40;;;0.30;;
57826;SDS011;43656;57.746;11.780;2024-02-23T01:07:55;0.68;;;0.30;;
57826;SDS011;43656;57.746;11.780;2024-02-23T01:10:21;0.50;;;0.30;;
57826;SDS011;43656;57.746;11.780;2024-02-23T01:12:47;0.38;;;0.30;;
57826;SDS011;43656;57.746;11.780;2024-02-23T01:15:12;0.70;;;0.40;;
57826;SDS011;43656;57.746;11.780;2024-02-23T01:17:39;0.32;;;0.32;;
57826;SDS011;43656;57.746;11.780;2024-02-23T01:20:04;0.50;;;0.30;;
57826;SDS011;43656;57.746;11.780;2024-02-23T01:22:30;0.63;;;0.40;;
57826;SDS011;43656;57.746;11.780;2024-02-23T01:24:56;0.93;;;0.40;;
57826;SDS011;43656;57.746;11.780;2024-02-23T01:27:21;0.47;;;0.35;;
57826;SDS011;43656;57.746;11.780;2024-02-23T01:29:47;1.65;;;0.40;;
57826;SDS011;43656;57.746;11.780;2024-02-23T01:32:13;0.20;;;0.20;;
57826;SDS011;43656;57.746;11.780;2024-02-23T01:34:38;0.50;;;0.30;;
57826;SDS011;43656;57.746;11.780;2024-02-23T01:37:04;0.35;;;0.30;;
57826;SDS011;43656;57.746;11.780;2024-02-23T01:39:29;0.55;;;0.50;;
57826;SDS011;43656;57.746;11.780;2024-02-23T01:41:55;0.50;;;0.47;;
57826;SDS011;43656;57.746;11.780;2024-02-23T01:44:20;0.52;;;0.40;;
57826;SDS011;43656;57.746;11.780;2024-02-23T01:46:46;0.63;;;0.30;;
57826;SDS011;43656;57.746;11.780;2024-02-23T01:49:12;0.40;;;0.40;;
57826;SDS011;43656;57.746;11.780;2024-02-23T01:51:39;0.30;;;0.30;;
57826;SDS011;43656;57.746;11.780;2024-02-23T01:54:04;0.32;;;0.32;;
57826;SDS011;43656;57.746;11.780;2024-02-23T01:56:31;1.10;;;0.40;;
57826;SDS011;43656;57.746;11.780;2024-02-23T01:58:58;2.67;;;0.40;;
57826;SDS011;43656;57.746;11.780;2024-02-23T02:01:25;1.38;;;0.30;;
57826;SDS011;43656;57.746;11.780;2024-02-23T02:03:51;0.50;;;0.35;;
57826;SDS011;43656;57.746;11.780;2024-02-23T02:06:16;1.05;;;0.40;;
57826;SDS011;43656;57.746;11.780;2024-02-23T02:08:42;0.50;;;0.30;;
57826;SDS011;43656;57.746;11.780;2024-02-23T02:11:08;0.40;;;0.20;;
57826;SDS011;43656;57.746;11.780;2024-02-23T02:13:33;0.28;;;0.20;;
57826;SDS011;43656;57.746;11.780;2024-02-23T02:15:59;0.40;;;0.40;;
57826;SDS011;43656;57.746;11.780;2024-02-23T02:18:27;0.43;;;0.20;;
57826;SDS011;43656;57.746;11.780;2024-02-23T02:20:56;0.20;;;0.20;;
57826;SDS011;43656;57.746;11.780;2024-02-23T02:23:22;0.70;;;0.30;;
57826;SDS011;43656;57.746;11.780;2024-02-23T02:25:58;2.13;;;0.40;;
57826;SDS011;43656;57.746;11.780;2024-02-23T02:28:24;0.88;;;0.30;;
57826;SDS011;43656;57.746;11.780;2024-02-23T02:30:50;0.60;;;0.40;;
57826;SDS011;43656;57.746;11.780;2024-02-23T02:33:17;0.45;;;0.30;;
57826;SDS011;43656;57.746;11.780;2024-02-23T02:35:43;0.50;;;0.30;;
57826;SDS011;43656;57.746;11.780;2024-02-23T02:38:08;0.52;;;0.30;;
57826;SDS011;43656;57.746;11.780;2024-02-23T02:40:35;0.90;;;0.15;;
57826;SDS011;43656;57.746;11.780;2024-02-23T02:43:01;0.43;;;0.10;;
57826;SDS011;43656;57.746;11.780;2024-02-23T02:45:26;0.10;;;0.10;;
57826;SDS011;43656;57.746;11.780;2024-02-23T02:47:52;0.47;;;0.20;;
57826;SDS011;43656;57.746;11.780;2024-02-23T02:50:17;0.40;;;0.20;;
57826;SDS011;43656;57.746;11.780;2024-02-23T02:52:42;0.22;;;0.20;;
57826;SDS011;43656;57.746;11.780;2024-02-23T02:55:08;0.30;;;0.20;;
57826;SDS011;43656;57.746;11.780;2024-02-23T02:57:33;0.70;;;0.20;;
57826;SDS011;43656;57.746;11.780;2024-02-23T03:00:01;0.63;;;0.20;;
57826;SDS011;43656;57.746;11.780;2024-02-23T03:02:30;0.75;;;0.20;;
57826;SDS011;43656;57.746;11.780;2024-02-23T03:04:55;0.75;;;0.20;;
57826;SDS011;43656;57.746;11.780;2024-02-23T03:07:21;0.45;;;0.20;;
57826;SDS011;43656;57.746;11.780;2024-02-23T03:09:47;0.13;;;0.10;;
57826;SDS011;43656;57.746;11.780;2024-02-23T03:12:14;0.50;;;0.20;;
57826;SDS011;43656;57.746;11.780;2024-02-23T03:14:39;0.20;;;0.10;;
57826;SDS011;43656;57.746;11.780;2024-02-23T03:17:06;1.67;;;0.17;;
57826;SDS011;43656;57.746;11.780;2024-02-23T03:19:32;0.40;;;0.20;;
57826;SDS011;43656;57.746;11.780;2024-02-23T03:21:57;0.20;;;0.10;;
57826;SDS011;43656;57.746;11.780;2024-02-23T03:24:23;0.57;;;0.30;;
57826;SDS011;43656;57.746;11.780;2024-02-23T03:26:48;0.40;;;0.30;;
57826;SDS011;43656;57.746;11.780;2024-02-23T03:29:14;0.57;;;0.32;;
57826;SDS011;43656;57.746;11.780;2024-02-23T03:31:39;0.30;;;0.30;;
57826;SDS011;43656;57.746;11.780;2024-02-23T03:34:05;0.88;;;0.30;;
57826;SDS011;43656;57.746;11.780;2024-02-23T03:36:30;0.98;;;0.40;;
57826;SDS011;43656;57.746;11.780;2024-02-23T03:38:55;3.70;;;0.68;;
57826;SDS011;43656;57.746;11.780;2024-02-23T03:41:21;6.22;;;0.80;;
57826;SDS011;43656;57.746;11.780;2024-02-23T03:43:46;1.95;;;0.52;;
57826;SDS011;43656;57.746;11.780;2024-02-23T03:46:11;4.55;;;0.60;;
57826;SDS011;43656;57.746;11.780;2024-02-23T03:48:38;4.82;;;0.80;;
57826;SDS011;43656;57.746;11.780;2024-02-23T03:51:04;8.68;;;1.52;;
57826;SDS011;43656;57.746;11.780;2024-02-23T03:53:30;8.50;;;1.52;;
57826;SDS011;43656;57.746;11.780;2024-02-23T03:55:56;6.78;;;1.80;;
57826;SDS011;43656;57.746;11.780;2024-02-23T03:58:22;10.30;;;2.33;;
57826;SDS011;43656;57.746;11.780;2024-02-23T04:00:47;7.80;;;1.90;;
57826;SDS011;43656;57.746;11.780;2024-02-23T04:03:13;8.27;;;2.15;;
57826;SDS011;43656;57.746;11.780;2024-02-23T04:05:38;7.38;;;1.88;;
57826;SDS011;43656;57.746;11.780;2024-02-23T04:08:03;11.05;;;2.05;;
57826;SDS011;43656;57.746;11.780;2024-02-23T04:10:29;12.57;;;2.10;;
57826;SDS011;43656;57.746;11.780;2024-02-23T04:12:54;11.40;;;2.40;;
57826;SDS011;43656;57.746;11.780;2024-02-23T04:15:20;8.30;;;1.73;;
57826;SDS011;43656;57.746;11.780;2024-02-23T04:17:46;14.50;;;2.10;;
57826;SDS011;43656;57.746;11.780;2024-02-23T04:20:11;7.40;;;1.65;;
57826;SDS011;43656;57.746;11.780;2024-02-23T04:22:37;9.65;;;1.58;;
57826;SDS011;43656;57.746;11.780;2024-02-23T04:25:03;12.73;;;1.73;;
57826;SDS011;43656;57.746;11.780;2024-02-23T04:27:30;11.82;;;1.75;;
57826;SDS011;43656;57.746;11.780;2024-02-23T04:29:55;13.57;;;1.75;;
57826;SDS011;43656;57.746;11.780;2024-02-23T04:32:21;15.90;;;1.83;;
57826;SDS011;43656;57.746;11.780;2024-02-23T04:34:46;14.82;;;2.55;;
57826;SDS011;43656;57.746;11.780;2024-02-23T04:37:12;18.13;;;2.92;;
57826;SDS011;43656;57.746;11.780;2024-02-23T04:39:37;16.17;;;3.05;;
57826;SDS011;43656;57.746;11.780;2024-02-23T04:42:03;17.45;;;2.65;;
57826;SDS011;43656;57.746;11.780;2024-02-23T04:44:29;19.05;;;2.55;;
57826;SDS011;43656;57.746;11.780;2024-02-23T04:46:54;16.05;;;2.53;;
57826;SDS011;43656;57.746;11.780;2024-02-23T04:49:20;13.90;;;2.10;;
57826;SDS011;43656;57.746;11.780;2024-02-23T04:51:45;19.60;;;2.30;;
57826;SDS011;43656;57.746;11.780;2024-02-23T04:54:11;13.98;;;2.80;;
57826;SDS011;43656;57.746;11.780;2024-02-23T04:56:36;22.60;;;3.28;;
57826;SDS011;43656;57.746;11.780;2024-02-23T04:59:02;14.40;;;2.17;;
57826;SDS011;43656;57.746;11.780;2024-02-23T05:01:28;13.95;;;2.45;;
57826;SDS011;43656;57.746;11.780;2024-02-23T05:03:53;14.77;;;1.90;;
57826;SDS011;43656;57.746;11.780;2024-02-23T05:06:19;16.88;;;2.35;;
57826;SDS011;43656;57.746;11.780;2024-02-23T05:08:44;14.48;;;2.40;;
57826;SDS011;43656;57.746;11.780;2024-02-23T05:11:09;20.40;;;2.85;;
57826;SDS011;43656;57.746;11.780;2024-02-23T05:13:35;19.90;;;2.67;;
57826;SDS011;43656;57.746;11.780;2024-02-23T05:16:01;18.55;;;2.17;;
57826;SDS011;43656;57.746;11.780;2024-02-23T05:18:27;16.92;;;2.63;;
57826;SDS011;43656;57.746;11.780;2024-02-23T05:20:52;19.02;;;2.70;;
57826;SDS011;43656;57.746;11.780;2024-02-23T05:23:18;17.40;;;3.03;;
57826;SDS011;43656;57.746;11.780;2024-02-23T05:25:44;24.00;;;2.83;;
57826;SDS011;43656;57.746;11.780;2024-02-23T05:28:09;24.38;;;2.95;;
57826;SDS011;43656;57.746;11.780;2024-02-23T05:30:34;21.77;;;3.42;;
57826;SDS011;43656;57.746;11.780;2024-02-23T05:33:00;26.23;;;3.58;;
57826;SDS011;43656;57.746;11.780;2024-02-23T05:35:28;22.52;;;3.72;;
57826;SDS011;43656;57.746;11.780;2024-02-23T05:37:55;26.48;;;3.75;;
57826;SDS011;43656;57.746;11.780;2024-02-23T05:40:20;22.02;;;3.38;;
57826;SDS011;43656;57.746;11.780;2024-02-23T05:42:46;19.77;;;3.25;;
57826;SDS011;43656;57.746;11.780;2024-02-23T05:45:11;16.30;;;2.28;;
57826;SDS011;43656;57.746;11.780;2024-02-23T05:47:40;29.58;;;3.38;;
57826;SDS011;43656;57.746;11.780;2024-02-23T05:50:07;19.73;;;2.30;;
57826;SDS011;43656;57.746;11.780;2024-02-23T05:52:33;17.60;;;2.38;;
57826;SDS011;43656;57.746;11.780;2024-02-23T05:54:59;15.13;;;2.35;;
57826;SDS011;43656;57.746;11.780;2024-02-23T05:57:27;16.77;;;3.15;;
57826;SDS011;43656;57.746;11.780;2024-02-23T05:59:53;14.32;;;2.35;;
57826;SDS011;43656;57.746;11.780;2024-02-23T06:02:20;21.65;;;2.67;;
57826;SDS011;43656;57.746;11.780;2024-02-23T06:04:45;24.73;;;2.88;;
57826;SDS011;43656;57.746;11.780;2024-02-23T06:07:11;20.60;;;2.75;;
57826;SDS011;43656;57.746;11.780;2024-02-23T06:09:38;19.25;;;2.53;;
57826;SDS011;43656;57.746;11.780;2024-02-23T06:12:03;22.27;;;3.47;;
57826;SDS011;43656;57.746;11.780;2024-02-23T06:14:31;32.05;;;4.07;;
57826;SDS011;43656;57.746;11.780;2024-02-23T06:16:56;22.17;;;3.13;;
57826;SDS011;43656;57.746;11.780;2024-02-23T06:19:21;25.98;;;3.33;;
57826;SDS011;43656;57.746;11.780;2024-02-23T06:21:47;31.25;;;3.97;;
57826;SDS011;43656;57.746;11.780;2024-02-23T06:24:14;30.40;;;3.70;;
57826;SDS011;43656;57.746;11.780;2024-02-23T06:26:39;25.48;;;3.38;;
57826;SDS011;43656;57.746;11.780;2024-02-23T06:29:04;28.38;;;4.93;;
57826;SDS011;43656;57.746;11.780;2024-02-23T06:31:30;29.42;;;3.75;;
57826;SDS011;43656;57.746;11.780;2024-02-23T06:33:58;28.85;;;3.28;;
57826;SDS011;43656;57.746;11.780;2024-02-23T06:36:24;23.35;;;3.00;;
57826;SDS011;43656;57.746;11.780;2024-02-23T06:38:49;22.08;;;3.45;;
57826;SDS011;43656;57.746;11.780;2024-02-23T06:41:15;23.75;;;3.63;;
57826;SDS011;43656;57.746;11.780;2024-02-23T06:43:40;19.45;;;2.72;;
57826;SDS011;43656;57.746;11.780;2024-02-23T06:46:06;16.92;;;2.70;;
57826;SDS011;43656;57.746;11.780;2024-02-23T06:48:33;14.45;;;2.47;;
57826;SDS011;43656;57.746;11.780;2024-02-23T06:50:59;14.32;;;2.03;;
57826;SDS011;43656;57.746;11.780;2024-02-23T06:53:24;9.55;;;1.83;;
57826;SDS011;43656;57.746;11.780;2024-02-23T06:55:50;18.50;;;2.88;;
57826;SDS011;43656;57.746;11.780;2024-02-23T06:58:15;21.80;;;3.28;;
57826;SDS011;43656;57.746;11.780;2024-02-23T07:00:41;19.23;;;2.83;;
57826;SDS011;43656;57.746;11.780;2024-02-23T07:03:07;23.58;;;3.05;;
57826;SDS011;43656;57.746;11.780;2024-02-23T07:05:33;17.75;;;2.38;;
57826;SDS011;43656;57.746;11.780;2024-02-23T07:08:00;25.63;;;3.70;;
57826;SDS011;43656;57.746;11.780;2024-02-23T07:10:26;22.52;;;3.38;;
57826;SDS011;43656;57.746;11.780;2024-02-23T07:12:52;19.77;;;3.45;;
57826;SDS011;43656;57.746;11.780;2024-02-23T07:15:18;25.63;;;3.58;;
57826;SDS011;43656;57.746;11.780;2024-02-23T07:17:45;24.80;;;4.05;;
57826;SDS011;43656;57.746;11.780;2024-02-23T07:20:11;20.35;;;3.42;;
57826;SDS011;43656;57.746;11.780;2024-02-23T07:22:36;17.33;;;2.63;;
57826;SDS011;43656;57.746;11.780;2024-02-23T07:25:02;18.35;;;3.38;;
57826;SDS011;43656;57.746;11.780;2024-02-23T07:27:29;21.48;;;3.17;;
57826;SDS011;43656;57.746;11.780;2024-02-23T07:29:55;18.88;;;3.42;;
57826;SDS011;43656;57.746;11.780;2024-02-23T07:32:21;24.38;;;3.58;;
57826;SDS011;43656;57.746;11.780;2024-02-23T07:34:46;23.40;;;3.58;;
57826;SDS011;43656;57.746;11.780;2024-02-23T07:37:11;21.83;;;3.25;;
57826;SDS011;43656;57.746;11.780;2024-02-23T07:39:37;28.73;;;4.70;;
57826;SDS011;43656;57.746;11.780;2024-02-23T07:42:03;29.77;;;4.32;;
57826;SDS011;43656;57.746;11.780;2024-02-23T07:44:29;22.92;;;3.50;;
57826;SDS011;43656;57.746;11.780;2024-02-23T07:46:54;17.58;;;3.13;;
57826;SDS011;43656;57.746;11.780;2024-02-23T07:49:21;17.38;;;3.35;;
57826;SDS011;43656;57.746;11.780;2024-02-23T07:51:47;27.17;;;3.97;;
57826;SDS011;43656;57.746;11.780;2024-02-23T07:54:13;26.77;;;4.20;;
57826;SDS011;43656;57.746;11.780;2024-02-23T07:56:38;19.50;;;3.10;;
57826;SDS011;43656;57.746;11.780;2024-02-23T07:59:03;19.95;;;3.92;;
57826;SDS011;43656;57.746;11.780;2024-02-23T08:01:29;22.15;;;2.95;;
57826;SDS011;43656;57.746;11.780;2024-02-23T08:03:55;22.17;;;2.88;;
57826;SDS011;43656;57.746;11.780;2024-02-23T08:06:21;19.95;;;3.80;;
57826;SDS011;43656;57.746;11.780;2024-02-23T08:08:46;13.82;;;2.30;;
57826;SDS011;43656;57.746;11.780;2024-02-23T08:11:12;18.17;;;2.97;;
57826;SDS011;43656;57.746;11.780;2024-02-23T08:13:38;15.77;;;2.35;;
57826;SDS011;43656;57.746;11.780;2024-02-23T08:16:04;16.80;;;2.83;;
57826;SDS011;43656;57.746;11.780;2024-02-23T08:18:30;18.58;;;2.20;;
57826;SDS011;43656;57.746;11.780;2024-02-23T08:20:56;15.50;;;2.85;;
57826;SDS011;43656;57.746;11.780;2024-02-23T08:23:22;15.07;;;2.20;;
57826;SDS011;43656;57.746;11.780;2024-02-23T08:25:48;17.27;;;2.55;;
57826;SDS011;43656;57.746;11.780;2024-02-23T08:28:13;15.27;;;2.42;;
57826;SDS011;43656;57.746;11.780;2024-02-23T08:30:38;18.48;;;2.85;;
57826;SDS011;43656;57.746;11.780;2024-02-23T08:33:04;14.38;;;2.53;;
57826;SDS011;43656;57.746;11.780;2024-02-23T08:35:30;15.43;;;2.83;;
57826;SDS011;43656;57.746;11.780;2024-02-23T08:37:56;15.50;;;2.50;;
57826;SDS011;43656;57.746;11.780;2024-02-23T08:40:21;21.75;;;3.22;;
57826;SDS011;43656;57.746;11.780;2024-02-23T08:42:47;13.07;;;3.08;;
57826;SDS011;43656;57.746;11.780;2024-02-23T08:45:12;17.40;;;3.00;;
57826;SDS011;43656;57.746;11.780;2024-02-23T08:47:38;15.73;;;2.55;;
57826;SDS011;43656;57.746;11.780;2024-02-23T08:50:04;16.05;;;2.88;;
57826;SDS011;43656;57.746;11.780;2024-02-23T08:52:31;21.33;;;3.30;;
57826;SDS011;43656;57.746;11.780;2024-02-23T08:54:56;23.98;;;3.42;;
57826;SDS011;43656;57.746;11.780;2024-02-23T08:57:22;20.38;;;3.10;;
57826;SDS011;43656;57.746;11.780;2024-02-23T08:59:51;18.08;;;3.20;;
57826;SDS011;43656;57.746;11.780;2024-02-23T09:02:16;22.50;;;3.47;;
57826;SDS011;43656;57.746;11.780;2024-02-23T09:04:42;22.15;;;2.75;;
57826;SDS011;43656;57.746;11.780;2024-02-23T09:07:09;19.15;;;3.03;;
57826;SDS011;43656;57.746;11.780;2024-02-23T09:09:35;18.02;;;2.95;;
57826;SDS011;43656;57.746;11.780;2024-02-23T09:12:01;18.05;;;2.95;;
57826;SDS011;43656;57.746;11.780;2024-02-23T09:14:26;12.75;;;2.20;;
57826;SDS011;43656;57.746;11.780;2024-02-23T09:16:52;12.48;;;2.50;;
57826;SDS011;43656;57.746;11.780;2024-02-23T09:19:18;21.17;;;2.83;;
57826;SDS011;43656;57.746;11.780;2024-02-23T09:21:44;16.35;;;2.30;;
57826;SDS011;43656;57.746;11.780;2024-02-23T09:24:10;18.00;;;2.60;;
57826;SDS011;43656;57.746;11.780;2024-02-23T09:26:35;22.15;;;3.20;;
57826;SDS011;43656;57.746;11.780;2024-02-23T09:29:01;20.55;;;3.13;;
57826;SDS011;43656;57.746;11.780;2024-02-23T09:31:26;16.30;;;3.47;;
57826;SDS011;43656;57.746;11.780;2024-02-23T09:33:54;21.27;;;3.47;;
57826;SDS011;43656;57.746;11.780;2024-02-23T09:36:20;24.52;;;3.63;;
57826;SDS011;43656;57.746;11.780;2024-02-23T09:38:45;22.02;;;3.25;;
57826;SDS011;43656;57.746;11.780;2024-02-23T09:41:15;24.80;;;3.58;;
57826;SDS011;43656;57.746;11.780;2024-02-23T09:46:19;15.65;;;3.05;;
57826;SDS011;43656;57.746;11.780;2024-02-23T09:48:44;14.50;;;2.78;;
57826;SDS011;43656;57.746;11.780;2024-02-23T09:51:11;18.63;;;3.40;;
57826;SDS011;43656;57.746;11.780;2024-02-23T09:53:37;22.80;;;3.58;;
57826;SDS011;43656;57.746;11.780;2024-02-23T09:56:03;15.23;;;2.50;;
57826;SDS011;43656;57.746;11.780;2024-02-23T09:58:33;15.52;;;3.33;;
57826;SDS011;43656;57.746;11.780;2024-02-23T10:01:01;19.52;;;2.97;;
57826;SDS011;43656;57.746;11.780;2024-02-23T10:03:27;21.58;;;3.05;;
57826;SDS011;43656;57.746;11.780;2024-02-23T10:05:55;20.50;;;3.35;;
57826;SDS011;43656;57.746;11.780;2024-02-23T10:08:24;18.58;;;3.33;;
57826;SDS011;43656;57.746;11.780;2024-02-23T10:10:50;15.52;;;2.80;;
57826;SDS011;43656;57.746;11.780;2024-02-23T10:13:20;18.88;;;3.85;;
57826;SDS011;43656;57.746;11.780;2024-02-23T10:15:49;20.13;;;3.13;;
57826;SDS011;43656;57.746;11.780;2024-02-23T10:18:15;16.90;;;2.95;;
57826;SDS011;43656;57.746;11.780;2024-02-23T10:20:41;15.82;;;3.25;;
57826;SDS011;43656;57.746;11.780;2024-02-23T10:23:07;26.05;;;4.38;;
57826;SDS011;43656;57.746;11.780;2024-02-23T10:25:33;18.85;;;3.38;;
57826;SDS011;43656;57.746;11.780;2024-02-23T10:28:00;25.75;;;3.67;;
57826;SDS011;43656;57.746;11.780;2024-02-23T10:30:27;25.98;;;4.25;;
57826;SDS011;43656;57.746;11.780;2024-02-23T10:32:54;27.88;;;4.85;;
57826;SDS011;43656;57.746;11.780;2024-02-23T10:35:21;20.77;;;3.33;;
57826;SDS011;43656;57.746;11.780;2024-02-23T10:37:48;23.00;;;3.63;;
57826;SDS011;43656;57.746;11.780;2024-02-23T10:40:17;22.00;;;4.05;;
57826;SDS011;43656;57.746;11.780;2024-02-23T10:42:44;14.77;;;2.88;;
57826;SDS011;43656;57.746;11.780;2024-02-23T10:45:16;25.67;;;3.92;;
57826;SDS011;43656;57.746;11.780;2024-02-23T10:47:47;22.13;;;3.92;;
57826;SDS011;43656;57.746;11.780;2024-02-23T10:50:13;24.25;;;3.90;;
57826;SDS011;43656;57.746;11.780;2024-02-23T10:52:42;23.45;;;3.85;;
57826;SDS011;43656;57.746;11.780;2024-02-23T10:55:11;21.67;;;3.50;;
57826;SDS011;43656;57.746;11.780;2024-02-23T10:57:37;19.48;;;3.55;;
57826;SDS011;43656;57.746;11.780;2024-02-23T11:00:04;25.10;;;3.55;;
57826;SDS011;43656;57.746;11.780;2024-02-23T11:02:36;22.20;;;4.03;;
57826;SDS011;43656;57.746;11.780;2024-02-23T11:05:15;19.35;;;3.13;;
57826;SDS011;43656;57.746;11.780;2024-02-23T11:07:41;16.90;;;3.03;;
57826;SDS011;43656;57.746;11.780;2024-02-23T11:10:07;18.98;;;3.63;;
57826;SDS011;43656;57.746;11.780;2024-02-23T11:12:34;23.73;;;4.10;;
57826;SDS011;43656;57.746;11.780;2024-02-23T11:15:00;17.65;;;3.08;;
57826;SDS011;43656;57.746;11.780;2024-02-23T11:17:27;19.30;;;2.72;;
57826;SDS011;43656;57.746;11.780;2024-02-23T11:19:55;17.38;;;2.95;;
57826;SDS011;43656;57.746;11.780;2024-02-23T11:22:30;23.05;;;3.60;;
57826;SDS011;43656;57.746;11.780;2024-02-23T11:25:01;22.67;;;3.00;;
57826;SDS011;43656;57.746;11.780;2024-02-23T11:27:31;16.85;;;3.00;;
57826;SDS011;43656;57.746;11.780;2024-02-23T11:30:02;18.05;;;3.10;;
57826;SDS011;43656;57.746;11.780;2024-02-23T11:32:37;23.08;;;3.10;;
57826;SDS011;43656;57.746;11.780;2024-02-23T11:35:08;23.77;;;3.70;;
57826;SDS011;43656;57.746;11.780;2024-02-23T11:40:27;21.35;;;3.28;;
57826;SDS011;43656;57.746;11.780;2024-02-23T11:42:55;24.67;;;3.92;;
57826;SDS011;43656;57.746;11.780;2024-02-23T11:45:20;23.38;;;3.58;;
57826;SDS011;43656;57.746;11.780;2024-02-23T11:47:47;21.15;;;3.58;;
57826;SDS011;43656;57.746;11.780;2024-02-23T11:50:12;24.00;;;4.07;;
57826;SDS011;43656;57.746;11.780;2024-02-23T11:52:39;19.98;;;3.72;;
57826;SDS011;43656;57.746;11.780;2024-02-23T11:55:05;31.10;;;4.55;;
57826;SDS011;43656;57.746;11.780;2024-02-23T11:57:32;22.88;;;3.78;;
57826;SDS011;43656;57.746;11.780;2024-02-23T11:59:58;27.40;;;4.13;;
57826;SDS011;43656;57.746;11.780;2024-02-23T12:02:26;27.65;;;4.07;;
57826;SDS011;43656;57.746;11.780;2024-02-23T12:04:51;25.67;;;4.18;;
57826;SDS011;43656;57.746;11.780;2024-02-23T12:07:16;25.27;;;4.60;;
57826;SDS011;43656;57.746;11.780;2024-02-23T12:09:43;21.83;;;3.55;;
57826;SDS011;43656;57.746;11.780;2024-02-23T12:12:08;21.35;;;3.13;;
57826;SDS011;43656;57.746;11.780;2024-02-23T12:14:37;22.40;;;3.30;;
57826;SDS011;43656;57.746;11.780;2024-02-23T12:17:02;22.13;;;3.08;;
57826;SDS011;43656;57.746;11.780;2024-02-23T12:19:32;23.83;;;3.03;;
57826;SDS011;43656;57.746;11.780;2024-02-23T12:22:00;20.17;;;2.85;;
57826;SDS011;43656;57.746;11.780;2024-02-23T12:24:26;14.10;;;2.70;;
57826;SDS011;43656;57.746;11.780;2024-02-23T12:26:54;23.88;;;3.65;;
57826;SDS011;43656;57.746;11.780;2024-02-23T12:29:20;17.48;;;3.20;;
57826;SDS011;43656;57.746;11.780;2024-02-23T12:31:46;24.95;;;3.58;;
57826;SDS011;43656;57.746;11.780;2024-02-23T12:34:11;24.10;;;3.45;;
57826;SDS011;43656;57.746;11.780;2024-02-23T12:36:40;23.10;;;3.72;;
57826;SDS011;43656;57.746;11.780;2024-02-23T12:39:05;21.60;;;3.50;;
57826;SDS011;43656;57.746;11.780;2024-02-23T12:41:31;17.10;;;2.60;;
57826;SDS011;43656;57.746;11.780;2024-02-23T12:43:57;25.25;;;4.15;;
57826;SDS011;43656;57.746;11.780;2024-02-23T12:46:22;19.52;;;2.35;;
57826;SDS011;43656;57.746;11.780;2024-02-23T12:48:48;17.45;;;2.70;;
57826;SDS011;43656;57.746;11.780;2024-02-23T12:51:14;12.82;;;1.95;;
57826;SDS011;43656;57.746;11.780;2024-02-23T12:53:40;12.63;;;2.10;;
57826;SDS011;43656;57.746;11.780;2024-02-23T12:58:33;12.73;;;2.03;;
57826;SDS011;43656;57.746;11.780;2024-02-23T13:01:09;11.73;;;1.98;;
57826;SDS011;43656;57.746;11.780;2024-02-23T13:03:35;13.73;;;2.30;;
57826;SDS011;43656;57.746;11.780;2024-02-23T13:06:01;16.70;;;2.20;;
57826;SDS011;43656;57.746;11.780;2024-02-23T13:08:27;23.48;;;3.65;;
57826;SDS011;43656;57.746;11.780;2024-02-23T13:10:53;19.02;;;2.90;;
57826;SDS011;43656;57.746;11.780;2024-02-23T13:13:20;18.70;;;3.28;;
57826;SDS011;43656;57.746;11.780;2024-02-23T13:15:46;21.05;;;2.83;;
57826;SDS011;43656;57.746;11.780;2024-02-23T13:18:12;19.08;;;2.60;;
57826;SDS011;43656;57.746;11.780;2024-02-23T13:20:42;16.23;;;2.17;;
57826;SDS011;43656;57.746;11.780;2024-02-23T13:23:08;16.23;;;2.60;;
57826;SDS011;43656;57.746;11.780;2024-02-23T13:25:37;18.15;;;2.45;;
57826;SDS011;43656;57.746;11.780;2024-02-23T13:28:06;15.65;;;2.08;;
57826;SDS011;43656;57.746;11.780;2024-02-23T13:30:32;18.38;;;2.60;;
57826;SDS011;43656;57.746;11.780;2024-02-23T13:32:59;13.77;;;1.80;;
57826;SDS011;43656;57.746;11.780;2024-02-23T13:35:25;12.63;;;1.80;;
57826;SDS011;43656;57.746;11.780;2024-02-23T13:37:50;8.48;;;1.88;;
57826;SDS011;43656;57.746;11.780;2024-02-23T13:40:16;13.32;;;1.70;;
57826;SDS011;43656;57.746;11.780;2024-02-23T13:42:42;10.95;;;1.65;;
57826;SDS011;43656;57.746;11.780;2024-02-23T13:45:11;21.42;;;2.03;;
57826;SDS011;43656;57.746;11.780;2024-02-23T13:47:38;15.68;;;2.42;;
57826;SDS011;43656;57.746;11.780;2024-02-23T13:50:05;12.05;;;2.10;;
57826;SDS011;43656;57.746;11.780;2024-02-23T13:52:30;13.75;;;2.45;;
57826;SDS011;43656;57.746;11.780;2024-02-23T13:54:56;15.43;;;2.10;;
57826;SDS011;43656;57.746;11.780;2024-02-23T13:57:22;12.55;;;2.13;;
57826;SDS011;43656;57.746;11.780;2024-02-23T13:59:47;15.95;;;2.30;;
57826;SDS011;43656;57.746;11.780;2024-02-23T14:02:13;20.25;;;2.42;;
57826;SDS011;43656;57.746;11.780;2024-02-23T14:04:38;14.73;;;2.50;;
57826;SDS011;43656;57.746;11.780;2024-02-23T14:07:04;15.05;;;1.90;;
57826;SDS011;43656;57.746;11.780;2024-02-23T14:09:29;14.23;;;2.72;;
57826;SDS011;43656;57.746;11.780;2024-02-23T14:11:55;12.02;;;1.90;;
57826;SDS011;43656;57.746;11.780;2024-02-23T14:14:20;10.70;;;2.20;;
57826;SDS011;43656;57.746;11.780;2024-02-23T14:16:46;16.02;;;2.97;;
57826;SDS011;43656;57.746;11.780;2024-02-23T14:19:11;14.05;;;2.03;;
57826;SDS011;43656;57.746;11.780;2024-02-23T14:21:37;13.55;;;2.33;;
57826;SDS011;43656;57.746;11.780;2024-02-23T14:24:03;19.40;;;2.33;;
57826;SDS011;43656;57.746;11.780;2024-02-23T14:26:29;13.55;;;2.08;;
57826;SDS011;43656;57.746;11.780;2024-02-23T14:28:54;17.65;;;2.45;;